createdAt,value
2017-09-28T00:01:30.653Z,83.17
2017-09-28T00:03:59.362Z,83.20
2017-09-28T00:06:27.844Z,83.23
2017-09-28T00:08:56.504Z,83.24
2017-09-28T00:11:25.115Z,83.25
2017-09-28T00:13:53.728Z,83.25
2017-09-28T00:16:22.412Z,83.25
2017-09-28T00:18:51.029Z,83.28
2017-09-28T00:21:19.688Z,83.29
2017-09-28T00:23:48.301Z,83.32
2017-09-28T00:26:16.933Z,83.31
2017-09-28T00:28:45.587Z,83.32
2017-09-28T00:31:13.944Z,83.32
2017-09-28T00:33:42.300Z,83.36
2017-09-28T00:36:10.781Z,83.34
2017-09-28T00:38:42.402Z,83.35
2017-09-28T00:41:10.947Z,83.39
2017-09-28T00:43:39.266Z,83.34
2017-09-28T00:46:07.943Z,83.40
2017-09-28T00:48:39.081Z,83.37
2017-09-28T00:51:07.717Z,83.38
2017-09-28T00:53:36.350Z,83.38
2017-09-28T00:56:05.106Z,83.38
2017-09-28T00:58:37.805Z,83.38
2017-09-28T01:01:06.478Z,83.37
2017-09-28T01:03:35.089Z,83.37
2017-09-28T01:06:03.719Z,83.40
2017-09-28T01:08:32.402Z,83.37
2017-09-28T01:11:01.041Z,83.36
2017-09-28T01:13:29.709Z,83.40
2017-09-28T01:15:58.379Z,83.37
2017-09-28T01:18:27.052Z,83.39
2017-09-28T01:20:55.360Z,83.39
2017-09-28T01:23:24.031Z,83.40
2017-09-28T01:25:52.385Z,83.39
2017-09-28T01:28:20.745Z,83.38
2017-09-28T01:30:49.421Z,83.40
2017-09-28T01:33:18.080Z,83.40
2017-09-28T01:35:46.451Z,83.40
2017-09-28T01:38:14.750Z,83.41
2017-09-28T01:40:43.101Z,83.40
2017-09-28T01:43:11.729Z,83.41
2017-09-28T01:45:40.115Z,83.43
2017-09-28T01:48:08.827Z,83.42
2017-09-28T01:50:37.486Z,83.42
2017-09-28T01:53:06.157Z,83.38
2017-09-28T01:55:34.634Z,83.43
2017-09-28T01:58:03.270Z,83.44
2017-09-28T02:00:31.957Z,83.44
2017-09-28T02:03:00.590Z,83.43
2017-09-28T02:05:29.280Z,83.47
2017-09-28T02:07:57.955Z,83.49
2017-09-28T02:10:26.582Z,83.45
2017-09-28T02:12:55.246Z,83.47
2017-09-28T02:15:23.920Z,83.45
2017-09-28T02:17:52.626Z,83.49
2017-09-28T02:20:21.269Z,83.49
2017-09-28T02:22:49.882Z,83.50
2017-09-28T02:25:18.252Z,83.47
2017-09-28T02:27:46.695Z,83.47
2017-09-28T02:30:15.317Z,83.50
2017-09-28T02:32:43.985Z,83.50
2017-09-28T02:35:12.618Z,83.49
2017-09-28T02:37:41.322Z,83.48
2017-09-28T02:40:09.982Z,83.46
2017-09-28T02:42:38.607Z,83.51
2017-09-28T02:45:07.323Z,83.52
2017-09-28T02:47:35.952Z,83.52
2017-09-28T02:50:04.597Z,83.52
2017-09-28T02:52:33.271Z,83.52
2017-09-28T02:55:01.882Z,83.55
2017-09-28T02:57:30.569Z,83.59
2017-09-28T02:59:59.226Z,83.60
2017-09-28T03:02:27.846Z,83.57
2017-09-28T03:04:56.510Z,83.60
2017-09-28T03:07:25.140Z,83.58
2017-09-28T03:09:53.659Z,83.65
2017-09-28T03:12:22.311Z,83.65
2017-09-28T03:14:50.965Z,83.67
2017-09-28T03:17:19.587Z,83.65
2017-09-28T03:19:48.123Z,83.64
2017-09-28T03:22:16.757Z,83.62
2017-09-28T03:24:45.423Z,83.65
2017-09-28T03:27:14.037Z,83.67
2017-09-28T03:29:42.707Z,83.64
2017-09-28T03:32:11.354Z,83.65
2017-09-28T03:34:39.973Z,83.63
2017-09-28T03:37:08.634Z,83.66
2017-09-28T03:39:37.245Z,83.70
2017-09-28T03:42:05.894Z,83.68
2017-09-28T03:44:34.551Z,83.70
2017-09-28T03:47:03.330Z,83.75
2017-09-28T03:49:31.998Z,83.72
2017-09-28T03:52:00.690Z,83.71
2017-09-28T03:54:29.329Z,83.73
2017-09-28T03:56:59.250Z,83.74
2017-09-28T03:59:27.934Z,83.74
2017-09-28T04:01:56.566Z,83.76
2017-09-28T04:04:25.226Z,83.75
2017-09-28T04:06:53.875Z,83.74
2017-09-28T04:09:22.537Z,83.76
2017-09-28T04:11:51.213Z,83.79
2017-09-28T04:14:35.220Z,83.76
2017-09-28T04:17:05.001Z,83.77
2017-09-28T04:19:33.632Z,83.81
2017-09-28T04:22:02.245Z,83.84
2017-09-28T04:24:30.924Z,83.81
2017-09-28T04:26:59.652Z,83.83
2017-09-28T04:29:28.346Z,83.83
2017-09-28T04:31:56.966Z,83.87
2017-09-28T04:34:25.657Z,83.87
2017-09-28T04:36:54.594Z,83.87
2017-09-28T04:39:22.939Z,83.89
2017-09-28T04:41:51.565Z,83.90
2017-09-28T04:44:20.238Z,83.92
2017-09-28T04:46:48.876Z,83.95
2017-09-28T04:49:17.502Z,83.97
2017-09-28T04:51:46.164Z,83.93
2017-09-28T04:54:14.792Z,83.93
2017-09-28T04:56:43.496Z,83.95
2017-09-28T04:59:12.192Z,83.95
2017-09-28T05:01:40.922Z,83.95
2017-09-28T05:04:09.618Z,83.94
2017-09-28T05:06:38.234Z,83.94
2017-09-28T05:09:06.897Z,83.91
2017-09-28T05:11:35.525Z,83.91
2017-09-28T05:14:04.186Z,83.95
2017-09-28T05:16:33.197Z,83.95
2017-09-28T05:19:02.003Z,83.95
2017-09-28T05:21:30.713Z,83.94
2017-09-28T05:23:59.385Z,84.12
2017-09-28T05:26:28.051Z,84.10
2017-09-28T05:28:56.737Z,84.12
2017-09-28T05:31:25.407Z,84.18
2017-09-28T05:33:54.032Z,84.29
2017-09-28T05:36:22.540Z,84.29
2017-09-28T05:38:51.033Z,84.37
2017-09-28T05:41:19.579Z,84.38
2017-09-28T05:43:48.091Z,84.50
2017-09-28T05:46:16.712Z,84.43
2017-09-28T05:48:45.384Z,84.52
2017-09-28T05:51:14.050Z,84.45
2017-09-28T05:53:42.677Z,84.60
2017-09-28T05:56:11.363Z,84.54
2017-09-28T05:58:40.020Z,84.57
2017-09-28T06:01:08.384Z,84.54
2017-09-28T06:03:36.938Z,84.79
2017-09-28T06:06:05.637Z,84.64
2017-09-28T06:08:37.178Z,84.75
2017-09-28T06:11:05.875Z,84.58
2017-09-28T06:13:34.549Z,84.65
2017-09-28T06:16:03.177Z,84.52
2017-09-28T06:18:34.881Z,84.68
2017-09-28T06:21:03.544Z,84.53
2017-09-28T06:23:32.198Z,84.61
2017-09-28T06:26:00.856Z,84.54
2017-09-28T06:28:29.526Z,84.51
2017-09-28T06:30:58.172Z,84.48
2017-09-28T06:33:26.840Z,84.41
2017-09-28T06:36:10.864Z,84.58
2017-09-28T06:38:55.087Z,84.49
2017-09-28T06:41:38.406Z,84.48
2017-09-28T06:44:22.675Z,84.52
2017-09-28T06:47:07.393Z,84.64
2017-09-28T06:50:02.024Z,84.75
2017-09-28T06:52:31.821Z,84.61
2017-09-28T06:55:00.431Z,85.04
2017-09-28T06:57:29.069Z,84.84
2017-09-28T06:59:57.727Z,84.81
2017-09-28T07:02:40.248Z,84.74
2017-09-28T07:05:19.638Z,84.79
2017-09-28T07:08:02.687Z,85.12
2017-09-28T07:10:32.322Z,84.98
2017-09-28T07:13:00.967Z,84.85
2017-09-28T07:15:29.658Z,84.92
2017-09-28T07:17:58.277Z,84.79
2017-09-28T07:20:26.932Z,85.05
2017-09-28T07:22:55.598Z,84.83
2017-09-28T07:25:24.234Z,84.82
2017-09-28T07:27:52.904Z,85.14
2017-09-28T07:30:21.558Z,85.27
2017-09-28T07:32:50.242Z,84.97
2017-09-28T07:35:26.531Z,84.82
2017-09-28T07:37:56.378Z,84.86
2017-09-28T07:40:27.753Z,85.05
2017-09-28T07:42:58.725Z,84.87
2017-09-28T07:45:29.732Z,85.15
2017-09-28T07:47:59.546Z,85.25
2017-09-28T07:50:29.370Z,85.19
2017-09-28T07:52:59.286Z,85.06
2017-09-28T07:55:32.346Z,84.96
2017-09-28T07:58:03.074Z,84.82
2017-09-28T08:00:35.198Z,84.77
2017-09-28T08:03:04.620Z,84.77
2017-09-28T08:05:34.578Z,84.72
2017-09-28T08:08:04.948Z,84.72
2017-09-28T08:10:36.057Z,84.68
2017-09-28T08:13:18.877Z,84.64
2017-09-28T08:16:13.772Z,84.81
2017-09-28T08:21:55.959Z,84.59
2017-09-28T08:24:31.295Z,84.62
2017-09-28T08:29:45.160Z,84.98
2017-09-28T08:32:14.779Z,84.79
2017-09-28T08:34:45.476Z,84.86
2017-09-28T08:37:17.161Z,84.79
2017-09-28T08:39:46.480Z,84.79
2017-09-28T08:42:16.311Z,84.84
2017-09-28T08:45:04.336Z,84.79
2017-09-28T08:47:34.776Z,84.81
2017-09-28T08:50:07.083Z,85.12
2017-09-28T08:52:36.489Z,85.27
2017-09-28T08:55:07.845Z,85.48
2017-09-28T08:57:37.422Z,85.40
2017-09-28T09:00:07.426Z,85.45
2017-09-28T09:02:36.293Z,85.31
2017-09-28T09:05:06.335Z,85.79
2017-09-28T09:07:36.628Z,85.73
2017-09-28T09:10:06.759Z,85.65
2017-09-28T09:12:37.072Z,85.39
2017-09-28T09:15:08.151Z,85.45
2017-09-28T09:17:37.926Z,85.33
2017-09-28T09:20:07.880Z,85.47
2017-09-28T09:22:40.337Z,85.24
2017-09-28T09:25:10.349Z,85.69
2017-09-28T09:27:40.329Z,85.71
2017-09-28T09:30:10.428Z,85.67
2017-09-28T09:32:40.114Z,85.53
2017-09-28T09:35:10.455Z,85.38
2017-09-28T09:37:39.778Z,85.57
2017-09-28T09:40:10.233Z,85.69
2017-09-28T09:42:39.082Z,85.35
2017-09-28T09:45:07.701Z,85.57
2017-09-28T09:47:36.330Z,85.59
2017-09-28T09:50:04.953Z,85.39
2017-09-28T09:52:33.601Z,85.44
2017-09-28T09:55:02.283Z,85.37
2017-09-28T09:57:30.897Z,85.32
2017-09-28T09:59:59.573Z,85.40
2017-09-28T10:02:28.051Z,85.25
2017-09-28T10:04:56.558Z,85.42
2017-09-28T10:07:38.853Z,85.00
2017-09-28T10:10:26.644Z,85.29
2017-09-28T10:13:12.139Z,85.12
2017-09-28T10:15:44.988Z,85.02
2017-09-28T10:18:13.477Z,85.18
2017-09-28T10:20:41.995Z,85.13
2017-09-28T10:23:10.653Z,85.00
2017-09-28T10:25:39.322Z,85.09
2017-09-28T10:28:07.982Z,85.08
2017-09-28T10:30:36.606Z,85.07
2017-09-28T10:33:05.268Z,85.14
2017-09-28T10:35:33.894Z,85.17
2017-09-28T10:38:02.517Z,85.12
2017-09-28T10:40:31.173Z,85.21
2017-09-28T10:42:59.793Z,85.23
2017-09-28T10:45:28.473Z,85.08
2017-09-28T10:47:57.099Z,84.97
2017-09-28T10:50:25.770Z,85.04
2017-09-28T10:52:55.400Z,85.09
2017-09-28T10:55:31.844Z,85.62
2017-09-28T10:58:00.755Z,85.87
2017-09-28T11:00:29.400Z,85.74
2017-09-28T11:02:58.077Z,85.71
2017-09-28T11:05:26.714Z,85.56
2017-09-28T11:07:55.337Z,85.29
2017-09-28T11:10:24.001Z,85.43
2017-09-28T11:12:52.606Z,85.69
2017-09-28T11:15:21.281Z,85.42
2017-09-28T11:17:49.898Z,85.43
2017-09-28T11:20:18.572Z,85.73
2017-09-28T11:22:47.194Z,85.56
2017-09-28T11:25:15.858Z,85.58
2017-09-28T11:27:44.504Z,85.67
2017-09-28T11:30:13.209Z,86.12
2017-09-28T11:32:41.883Z,85.66
2017-09-28T11:35:10.516Z,85.94
2017-09-28T11:37:39.137Z,85.72
2017-09-28T11:40:07.800Z,85.86
2017-09-28T11:42:36.469Z,85.63
2017-09-28T11:45:05.171Z,85.62
2017-09-28T11:47:33.790Z,85.81
2017-09-28T11:50:02.448Z,86.04
2017-09-28T11:52:31.076Z,85.94
2017-09-28T11:54:59.822Z,85.78
2017-09-28T11:57:28.449Z,85.73
2017-09-28T11:59:57.115Z,85.80
2017-09-28T12:02:25.829Z,85.77
2017-09-28T12:04:54.469Z,85.92
2017-09-28T12:07:23.226Z,85.88
2017-09-28T12:09:51.923Z,85.50
2017-09-28T12:12:20.593Z,85.59
2017-09-28T12:14:49.230Z,85.77
2017-09-28T12:17:17.885Z,85.67
2017-09-28T12:19:46.546Z,85.89
2017-09-28T12:22:15.186Z,85.70
2017-09-28T12:24:43.874Z,85.34
2017-09-28T12:27:12.519Z,85.10
2017-09-28T12:29:41.195Z,85.08
2017-09-28T12:32:17.381Z,85.13
2017-09-28T12:35:03.279Z,84.70
2017-09-28T12:37:32.097Z,84.98
2017-09-28T12:40:00.759Z,85.05
2017-09-28T12:42:29.435Z,85.56
2017-09-28T12:47:42.735Z,85.55
2017-09-28T12:50:11.369Z,85.70
2017-09-28T12:52:40.069Z,85.36
2017-09-28T12:55:08.720Z,85.15
2017-09-28T12:57:37.626Z,85.26
2017-09-28T13:00:06.278Z,85.13
2017-09-28T13:02:34.970Z,84.94
2017-09-28T13:05:10.622Z,84.68
2017-09-28T13:07:39.345Z,85.01
2017-09-28T13:10:07.996Z,85.17
2017-09-28T13:12:36.607Z,85.14
2017-09-28T13:15:05.295Z,85.19
2017-09-28T13:17:33.911Z,85.19
2017-09-28T13:20:02.565Z,85.17
2017-09-28T13:22:31.286Z,85.16
2017-09-28T13:25:00.034Z,85.16
2017-09-28T13:27:28.720Z,85.20
2017-09-28T13:29:57.382Z,85.06
2017-09-28T13:32:26.054Z,85.09
2017-09-28T13:34:54.662Z,85.00
2017-09-28T13:37:25.485Z,85.03
2017-09-28T13:39:54.170Z,85.07
2017-09-28T13:42:22.782Z,85.10
2017-09-28T13:44:51.393Z,85.07
2017-09-28T13:47:20.081Z,85.01
2017-09-28T13:49:48.754Z,84.96
2017-09-28T13:52:17.405Z,84.94
2017-09-28T13:54:46.018Z,84.90
2017-09-28T13:57:14.678Z,84.84
2017-09-28T13:59:43.303Z,84.89
2017-09-28T14:02:11.978Z,84.83
2017-09-28T14:04:40.594Z,84.81
2017-09-28T14:07:09.209Z,84.86
2017-09-28T14:09:37.869Z,84.86
2017-09-28T14:12:06.478Z,84.83
2017-09-28T14:14:35.131Z,84.91
2017-09-28T14:17:03.802Z,84.93
2017-09-28T14:19:32.466Z,84.92
2017-09-28T14:22:01.110Z,84.82
2017-09-28T14:24:29.728Z,84.85
2017-09-28T14:26:58.378Z,84.90
2017-09-28T14:29:26.986Z,84.81
2017-09-28T14:31:55.646Z,84.88
2017-09-28T14:34:24.262Z,84.87
2017-09-28T14:36:52.958Z,84.82
2017-09-28T14:39:21.594Z,84.84
2017-09-28T14:41:50.202Z,84.90
2017-09-28T14:44:18.865Z,84.94
2017-09-28T14:46:47.469Z,84.90
2017-09-28T14:49:16.127Z,84.99
2017-09-28T14:51:44.599Z,84.90
2017-09-28T14:54:13.309Z,85.03
2017-09-28T14:56:41.770Z,84.97
2017-09-28T14:59:10.385Z,84.94
2017-09-28T15:01:39.046Z,84.98
2017-09-28T15:04:07.673Z,85.03
2017-09-28T15:06:36.334Z,84.93
2017-09-28T15:09:04.440Z,84.99
2017-09-28T15:11:33.094Z,84.93
2017-09-28T15:14:01.737Z,84.95
2017-09-28T15:16:30.384Z,84.92
2017-09-28T15:18:59.046Z,84.97
2017-09-28T15:21:27.685Z,84.95
2017-09-28T15:23:56.370Z,84.95
2017-09-28T15:26:24.985Z,84.91
2017-09-28T15:28:53.593Z,84.91
2017-09-28T15:31:22.245Z,84.97
2017-09-28T15:33:50.878Z,84.95
2017-09-28T15:36:19.529Z,85.02
2017-09-28T15:38:48.137Z,85.03
2017-09-28T15:41:16.815Z,84.99
2017-09-28T15:43:45.437Z,84.97
2017-09-28T15:46:14.056Z,84.95
2017-09-28T15:48:42.726Z,84.92
2017-09-28T15:51:11.343Z,84.94
2017-09-28T15:53:39.993Z,84.95
2017-09-28T15:56:08.609Z,84.94
2017-09-28T15:58:37.266Z,84.98
2017-09-28T16:01:05.920Z,85.00
2017-09-28T16:03:34.588Z,84.97
2017-09-28T16:06:03.201Z,84.93
2017-09-28T16:08:35.813Z,84.91
2017-09-28T16:11:04.501Z,84.91
2017-09-28T16:13:33.190Z,84.97
2017-09-28T16:16:01.814Z,84.89
2017-09-28T16:18:30.479Z,84.93
2017-09-28T16:20:59.097Z,84.94
2017-09-28T16:23:27.747Z,84.90
2017-09-28T16:32:58.434Z,84.98
2017-09-28T16:35:39.839Z,85.00
2017-09-28T16:38:10.424Z,85.15
2017-09-28T16:40:39.123Z,85.17
2017-09-28T16:43:07.795Z,85.13
2017-09-28T16:45:36.450Z,85.13
2017-09-28T16:48:05.133Z,85.15
2017-09-28T16:50:37.585Z,85.20
2017-09-28T16:53:09.430Z,85.16
2017-09-28T16:55:41.024Z,85.20
2017-09-28T16:58:10.629Z,85.12
2017-09-28T17:00:39.453Z,85.18
2017-09-28T17:03:08.066Z,85.30
2017-09-28T17:05:36.742Z,85.20
2017-09-28T17:08:05.383Z,85.25
2017-09-28T17:10:34.042Z,85.19
2017-09-28T17:13:02.519Z,85.26
2017-09-28T17:15:31.179Z,85.21
2017-09-28T17:17:59.642Z,85.26
2017-09-28T17:20:28.257Z,85.15
2017-09-28T17:22:56.772Z,85.19
2017-09-28T17:25:25.243Z,85.11
2017-09-28T17:27:53.894Z,85.03
2017-09-28T17:30:22.515Z,84.99
2017-09-28T17:32:51.127Z,84.93
2017-09-28T17:35:19.805Z,84.91
2017-09-28T17:37:48.413Z,84.76
2017-09-28T17:40:17.080Z,84.78
2017-09-28T17:42:45.685Z,84.82
2017-09-28T17:45:14.373Z,84.75
2017-09-28T17:47:42.856Z,84.68
2017-09-28T17:50:11.482Z,84.58
2017-09-28T17:52:40.142Z,84.52
2017-09-28T17:55:08.757Z,84.42
2017-09-28T17:57:37.414Z,84.41
2017-09-28T18:00:06.025Z,84.41
2017-09-28T18:02:34.681Z,84.30
2017-09-28T18:05:03.294Z,84.24
2017-09-28T18:07:31.904Z,84.19
2017-09-28T18:10:00.571Z,84.13
2017-09-28T18:12:29.205Z,84.06
2017-09-28T18:14:57.853Z,84.05
2017-09-28T18:17:26.465Z,84.02
2017-09-28T18:19:55.143Z,84.02
2017-09-28T18:22:23.791Z,83.95
2017-09-28T18:24:52.406Z,83.93
2017-09-28T18:27:21.069Z,83.91
2017-09-28T18:29:49.538Z,83.87
2017-09-28T18:32:18.182Z,83.87
2017-09-28T18:34:46.837Z,83.83
2017-09-28T18:37:15.454Z,83.83
2017-09-28T18:39:44.100Z,83.79
2017-09-28T18:42:12.711Z,83.77
2017-09-28T18:44:41.361Z,83.77
2017-09-28T18:47:10.026Z,83.78
2017-09-28T18:49:38.642Z,83.76
2017-09-28T18:52:07.308Z,83.71
2017-09-28T18:54:35.950Z,83.67
2017-09-28T18:57:04.613Z,83.72
2017-09-28T18:59:33.242Z,83.79
2017-09-28T19:02:01.918Z,83.74
2017-09-28T19:04:30.381Z,83.75
2017-09-28T19:06:58.906Z,83.73
2017-09-28T19:09:27.436Z,83.72
2017-09-28T19:11:55.928Z,83.75
2017-09-28T19:14:24.610Z,83.76
2017-09-28T19:16:53.256Z,83.75
2017-09-28T19:19:21.727Z,83.75
2017-09-28T19:21:50.399Z,83.77
2017-09-28T19:24:19.238Z,83.77
2017-09-28T19:26:47.895Z,83.81
2017-09-28T19:29:16.363Z,83.79
2017-09-28T19:31:44.886Z,83.78
2017-09-28T19:34:13.544Z,83.81
2017-09-28T19:36:42.231Z,83.80
2017-09-28T19:39:10.853Z,83.82
2017-09-28T19:41:39.498Z,83.83
2017-09-28T19:44:08.109Z,83.81
2017-09-28T19:46:36.763Z,83.80
2017-09-28T19:49:05.217Z,83.82
2017-09-28T19:51:33.899Z,83.82
2017-09-28T19:54:02.374Z,83.82
2017-09-28T19:56:30.845Z,83.84
2017-09-28T19:58:59.382Z,83.85
2017-09-28T20:01:27.984Z,83.85
2017-09-28T20:03:56.648Z,83.85
2017-09-28T20:06:25.254Z,83.83
2017-09-28T20:08:53.869Z,83.84
2017-09-28T20:11:22.545Z,83.83
2017-09-28T20:13:51.206Z,83.83
2017-09-28T20:16:19.882Z,83.83
2017-09-28T20:18:48.517Z,83.82
2017-09-28T20:21:16.978Z,83.85
2017-09-28T20:23:45.641Z,83.84
2017-09-28T20:26:14.258Z,83.87
2017-09-28T20:28:42.919Z,83.87
2017-09-28T20:31:11.576Z,83.91
2017-09-28T20:33:40.227Z,83.95
2017-09-28T20:36:08.846Z,84.00
2017-09-28T20:38:37.540Z,84.03
2017-09-28T20:41:06.170Z,84.15
2017-09-28T20:43:34.782Z,84.28
2017-09-28T20:46:03.465Z,84.28
2017-09-28T20:48:33.928Z,84.27
2017-09-28T20:51:02.319Z,84.21
2017-09-28T20:53:30.617Z,84.20
2017-09-28T20:55:59.245Z,84.20
2017-09-28T20:58:27.901Z,84.19
2017-09-28T21:00:56.773Z,84.25
2017-09-28T21:03:25.462Z,84.24
2017-09-28T21:05:54.089Z,84.73
2017-09-28T21:08:22.745Z,84.58
2017-09-28T21:10:51.402Z,84.58
2017-09-28T21:13:20.022Z,84.51
2017-09-28T21:15:48.673Z,84.61
2017-09-28T21:18:17.278Z,84.64
2017-09-28T21:20:45.941Z,84.55
2017-09-28T21:23:14.551Z,84.58
2017-09-28T21:25:43.230Z,84.59
2017-09-28T21:28:11.859Z,84.69
2017-09-28T21:30:40.898Z,84.89
2017-09-28T21:33:09.758Z,84.74
2017-09-28T21:35:38.415Z,84.69
2017-09-28T21:38:06.926Z,84.72
2017-09-28T21:40:35.543Z,84.62
2017-09-28T21:43:04.150Z,84.67
2017-09-28T21:45:32.687Z,84.96
2017-09-28T21:48:01.328Z,84.60
2017-09-28T21:50:30.972Z,84.71
2017-09-28T21:53:04.069Z,84.68
2017-09-28T21:55:44.685Z,84.92
2017-09-28T21:58:16.944Z,84.78
2017-09-28T22:00:48.590Z,84.88
2017-09-28T22:03:20.288Z,84.77
2017-09-28T22:05:57.846Z,84.68
2017-09-28T22:08:33.963Z,84.95
2017-09-28T22:11:03.967Z,84.92
2017-09-28T22:13:47.132Z,84.94
2017-09-28T22:16:18.328Z,84.86
2017-09-28T22:18:52.077Z,84.80
2017-09-28T22:21:25.006Z,84.86
2017-09-28T22:23:59.217Z,84.78
2017-09-28T22:26:29.493Z,84.97
2017-09-28T22:28:59.040Z,84.86
2017-09-28T22:31:29.331Z,85.03
2017-09-28T22:33:59.665Z,84.86
2017-09-28T22:36:29.781Z,84.98
2017-09-28T22:39:00.334Z,85.00
2017-09-28T22:41:30.848Z,84.94
2017-09-28T22:43:59.501Z,84.90
2017-09-28T22:46:28.114Z,84.99
2017-09-28T22:48:56.743Z,85.00
2017-09-28T22:51:25.401Z,84.93
2017-09-28T22:53:54.013Z,85.18
2017-09-28T22:56:22.672Z,85.06
2017-09-28T22:58:51.273Z,85.03
2017-09-28T23:01:19.977Z,85.26
2017-09-28T23:03:48.589Z,85.02
2017-09-28T23:06:17.044Z,85.56
2017-09-28T23:08:45.707Z,85.38
2017-09-28T23:11:14.325Z,85.18
2017-09-28T23:13:42.985Z,85.47
2017-09-28T23:16:11.606Z,85.03
2017-09-28T23:18:40.236Z,85.18
2017-09-28T23:21:09.006Z,85.11
2017-09-28T23:23:37.642Z,85.01
2017-09-28T23:26:06.161Z,84.91
2017-09-28T23:28:37.647Z,84.99
2017-09-28T23:31:06.262Z,84.97
2017-09-28T23:33:34.954Z,85.27
2017-09-28T23:36:03.564Z,85.15
2017-09-28T23:38:35.678Z,85.17
2017-09-28T23:41:04.277Z,85.34
2017-09-28T23:43:34.812Z,85.06
2017-09-28T23:46:03.473Z,85.02
2017-09-28T23:48:35.561Z,85.33
2017-09-28T23:51:04.241Z,85.03
2017-09-28T23:53:32.846Z,85.08
2017-09-28T23:56:01.469Z,85.23
2017-09-28T23:58:30.143Z,85.13
